Time;durP1;ratioP1;P1;durP2;ratioP2;P2;SDS_P1;SDS_P2;PMS_P1;PMS_P2;Temp;Humidity;BMP_temperature;BMP_pressure;BME280_temperature;BME280_humidity;BME280_pressure;Samples;Min_cycle;Max_cycle;Signal;HPM_P1;HPM_P2
2022/05/23 00:00:51;;;;;;;4.05;2.03;;;13.30;93.10;;;;;;5053791;28;20025;-67
2022/05/23 00:03:18;;;;;;;3.50;2.00;;;13.20;93.40;;;;;;5057273;28;20049;-67
2022/05/23 00:05:44;;;;;;;3.67;1.98;;;13.10;94.00;;;;;;5057727;28;20068;-68
2022/05/23 00:08:09;;;;;;;4.90;2.03;;;13.00;93.90;;;;;;5048548;28;20048;-67
2022/05/23 00:10:35;;;;;;;5.15;1.80;;;13.10;94.00;;;;;;5052401;28;20175;-67
2022/05/23 00:13:07;;;;;;;3.65;2.03;;;13.00;93.60;;;;;;5054230;28;20025;-68
2022/05/23 00:15:33;;;;;;;4.35;1.95;;;13.00;94.10;;;;;;5053683;28;20318;-68
2022/05/23 00:17:58;;;;;;;6.38;1.88;;;12.90;94.30;;;;;;5047266;28;20017;-68
2022/05/23 00:20:25;;;;;;;4.28;1.90;;;12.80;94.80;;;;;;5049526;28;20144;-68
2022/05/23 00:22:51;;;;;;;3.60;1.80;;;12.70;94.90;;;;;;5037936;28;20021;-68
2022/05/23 00:25:18;;;;;;;4.28;1.90;;;12.70;95.20;;;;;;5051725;28;20039;-68
2022/05/23 00:27:45;;;;;;;5.05;2.00;;;12.70;95.20;;;;;;5054368;28;20409;-67
2022/05/23 00:30:14;;;;;;;3.92;1.70;;;12.70;95.20;;;;;;5054895;28;20132;-67
2022/05/23 00:35:25;;;;;;;5.50;2.17;;;12.80;95.10;;;;;;5052330;28;20425;-67
2022/05/23 00:37:53;;;;;;;4.95;2.05;;;12.50;95.50;;;;;;5064046;28;20021;-68
2022/05/23 00:40:31;;;;;;;4.63;2.03;;;12.40;95.70;;;;;;5054171;28;20045;-68
2022/05/23 00:43:21;;;;;;;7.00;2.30;;;12.40;95.90;;;;;;5053260;28;20025;-67
2022/05/23 00:45:51;;;;;;;6.70;2.30;;;12.40;95.70;;;;;;5053642;28;20029;-67
2022/05/23 00:48:21;;;;;;;3.65;1.92;;;12.40;96.10;;;;;;5056554;28;20111;-67
2022/05/23 00:50:54;;;;;;;4.10;1.88;;;12.50;95.60;;;;;;5053334;28;20028;-68
2022/05/23 00:53:28;;;;;;;5.03;2.03;;;12.50;95.40;;;;;;5066593;28;20162;-68
2022/05/23 00:55:54;;;;;;;4.43;2.15;;;12.40;95.40;;;;;;5051305;28;20024;-68
2022/05/23 00:58:28;;;;;;;4.82;2.20;;;12.30;95.60;;;;;;5041697;28;20028;-68
2022/05/23 01:00:59;;;;;;;4.38;2.15;;;12.30;95.90;;;;;;5054541;28;20112;-68
2022/05/23 01:03:25;;;;;;;4.13;2.10;;;12.20;96.20;;;;;;5039502;28;20080;-68
2022/05/23 01:05:54;;;;;;;3.50;2.08;;;12.20;96.20;;;;;;5051531;28;20074;-68
2022/05/23 01:08:21;;;;;;;4.20;2.08;;;12.20;96.20;;;;;;5051837;28;20037;-68
2022/05/23 01:10:47;;;;;;;5.18;2.30;;;12.20;96.10;;;;;;5051894;28;20116;-68
2022/05/23 01:13:14;;;;;;;4.28;1.90;;;12.30;96.20;;;;;;5053337;28;20499;-67
2022/05/23 01:15:44;;;;;;;3.65;2.17;;;12.40;95.90;;;;;;5031975;28;20150;-68
2022/05/23 01:18:12;;;;;;;6.20;2.08;;;12.50;95.70;;;;;;5051271;28;20025;-68
2022/05/23 01:20:38;;;;;;;4.07;2.00;;;12.80;93.90;;;;;;5051209;28;20354;-68
2022/05/23 01:23:07;;;;;;;4.80;1.90;;;12.90;94.60;;;;;;5056307;28;20039;-68
2022/05/23 01:25:38;;;;;;;4.68;2.15;;;13.10;92.70;;;;;;5049533;28;20148;-68
2022/05/23 01:28:05;;;;;;;5.43;2.08;;;13.50;90.80;;;;;;5050267;28;20558;-68
2022/05/23 01:30:34;;;;;;;4.05;1.88;;;13.70;90.70;;;;;;5053278;28;20040;-68
2022/05/23 01:33:01;;;;;;;5.38;1.95;;;13.90;88.50;;;;;;5057917;28;20108;-68
2022/05/23 01:35:27;;;;;;;5.60;1.90;;;14.40;86.80;;;;;;5051854;28;20030;-68
2022/05/23 01:37:53;;;;;;;7.53;2.30;;;14.80;85.30;;;;;;5035703;28;20115;-67
2022/05/23 01:40:19;;;;;;;4.97;2.03;;;15.10;83.80;;;;;;5055217;28;20167;-68
2022/05/23 01:42:45;;;;;;;4.72;1.88;;;15.50;82.60;;;;;;5061401;28;20024;-68
2022/05/23 01:45:14;;;;;;;7.07;1.95;;;15.70;81.80;;;;;;5042993;28;20366;-68
2022/05/23 01:47:42;;;;;;;3.78;1.90;;;16.00;80.80;;;;;;5055344;28;20035;-68
2022/05/23 01:50:08;;;;;;;3.83;2.00;;;16.20;80.00;;;;;;5057534;28;20028;-68
2022/05/23 01:52:34;;;;;;;3.10;1.67;;;16.30;79.60;;;;;;5056131;28;20487;-68
2022/05/23 01:55:00;;;;;;;5.13;1.98;;;16.40;79.30;;;;;;5054271;28;20411;-68
2022/05/23 01:57:26;;;;;;;7.97;2.22;;;16.50;79.30;;;;;;5052440;28;20424;-68
2022/05/23 02:02:36;;;;;;;3.47;1.90;;;16.60;78.40;;;;;;5055543;28;20442;-68
2022/05/23 02:05:06;;;;;;;6.05;1.92;;;16.60;78.30;;;;;;5057156;28;20061;-68
2022/05/23 02:07:32;;;;;;;5.88;1.70;;;16.70;78.30;;;;;;5060877;28;20044;-68
2022/05/23 02:10:00;;;;;;;4.82;1.70;;;16.70;78.00;;;;;;5056377;28;20429;-68
2022/05/23 02:12:25;;;;;;;4.43;1.90;;;16.80;77.60;;;;;;5041496;28;20035;-68
2022/05/23 02:14:54;;;;;;;3.78;1.70;;;16.90;77.70;;;;;;5057906;28;20025;-68
2022/05/23 02:17:20;;;;;;;5.18;1.80;;;17.00;77.40;;;;;;5061575;28;20426;-68
2022/05/23 02:19:48;;;;;;;5.78;2.42;;;17.00;77.00;;;;;;5056594;28;20055;-67
2022/05/23 02:22:14;;;;;;;6.60;2.00;;;17.00;76.80;;;;;;5059332;28;20036;-67
2022/05/23 02:24:40;;;;;;;4.63;1.90;;;17.10;77.00;;;;;;5055062;28;20028;-67
2022/05/23 02:27:06;;;;;;;4.13;1.80;;;17.00;76.80;;;;;;5035023;28;20071;-67
2022/05/23 02:29:33;;;;;;;5.20;1.90;;;17.00;77.00;;;;;;5055855;28;20025;-69
2022/05/23 02:31:59;;;;;;;4.47;1.80;;;17.00;77.00;;;;;;5053018;28;20021;-69
2022/05/23 02:34:24;;;;;;;4.85;1.98;;;17.00;77.00;;;;;;5056469;28;20436;-68
2022/05/23 02:36:50;;;;;;;4.15;1.80;;;16.90;77.10;;;;;;5038249;28;20312;-68
2022/05/23 02:39:16;;;;;;;4.38;1.98;;;16.90;76.90;;;;;;5059363;28;20033;-68
2022/05/23 02:41:53;;;;;;;6.68;2.10;;;16.90;77.10;;;;;;5060730;28;20109;-68
2022/05/23 02:44:19;;;;;;;4.72;2.45;;;16.90;77.30;;;;;;5053561;28;20384;-68
2022/05/23 02:46:47;;;;;;;5.65;2.55;;;16.90;77.20;;;;;;5055028;28;20025;-68
2022/05/23 02:49:13;;;;;;;8.27;2.30;;;16.90;77.40;;;;;;5057297;28;20078;-68
2022/05/23 02:51:39;;;;;;;4.40;1.85;;;16.90;77.30;;;;;;5050184;28;20075;-68
2022/05/23 02:54:08;;;;;;;3.90;1.75;;;16.90;77.30;;;;;;5062732;28;20039;-68
2022/05/23 02:56:34;;;;;;;7.57;2.45;;;17.00;77.40;;;;;;5059105;28;20482;-68
2022/05/23 02:59:00;;;;;;;9.68;2.13;;;16.90;77.40;;;;;;5056288;28;20028;-68
2022/05/23 03:01:26;;;;;;;4.57;1.83;;;16.90;77.70;;;;;;5054758;28;20051;-68
2022/05/23 03:03:51;;;;;;;4.68;2.00;;;16.90;77.60;;;;;;5055741;28;20045;-68
2022/05/23 03:06:22;;;;;;;6.85;1.98;;;16.90;77.50;;;;;;5054688;28;20043;-68
2022/05/23 03:08:50;;;;;;;3.80;2.08;;;17.00;77.60;;;;;;5048906;28;20025;-68
2022/05/23 03:11:16;;;;;;;5.43;2.10;;;17.10;77.20;;;;;;5056664;28;20619;-68
2022/05/23 03:13:42;;;;;;;4.20;1.83;;;17.10;77.30;;;;;;5061528;28;20027;-68
2022/05/23 03:16:10;;;;;;;4.53;1.90;;;17.10;77.50;;;;;;5054580;28;20032;-68
2022/05/23 03:18:36;;;;;;;4.80;2.03;;;17.20;77.20;;;;;;5054465;28;20095;-68
2022/05/23 03:26:58;;;;;;;5.30;2.10;;;17.20;76.90;;;;;;5055766;28;20411;-68
2022/05/23 03:26:59;;;;;;;4.80;2.28;;;17.30;76.90;;;;;;5054573;28;20036;-68
2022/05/23 03:29:25;;;;;;;5.33;1.60;;;17.40;76.90;;;;;;5058616;28;20029;-69
2022/05/23 03:31:51;;;;;;;4.13;1.90;;;17.40;77.00;;;;;;5035851;28;20059;-68
2022/05/23 03:34:17;;;;;;;5.75;1.92;;;17.40;77.20;;;;;;5055082;28;20067;-69
2022/05/23 03:36:43;;;;;;;3.97;1.90;;;17.40;77.30;;;;;;5054544;28;20462;-69
2022/05/23 03:39:09;;;;;;;5.72;2.20;;;17.40;77.60;;;;;;5064811;28;20074;-68
2022/05/23 03:41:39;;;;;;;5.35;2.10;;;17.40;77.80;;;;;;5054716;28;20426;-68
2022/05/23 03:44:07;;;;;;;6.03;2.58;;;17.40;77.70;;;;;;5071228;28;20028;-69
2022/05/23 03:46:36;;;;;;;5.70;2.30;;;17.40;78.20;;;;;;5058829;28;20418;-69
2022/05/23 03:49:06;;;;;;;6.70;1.90;;;17.60;77.60;;;;;;5054666;28;20120;-68
2022/05/23 03:51:34;;;;;;;5.07;2.38;;;17.60;77.60;;;;;;5054181;28;20044;-68
2022/05/23 03:54:00;;;;;;;3.67;1.90;;;17.50;78.30;;;;;;5054584;28;20120;-68
2022/05/23 03:56:26;;;;;;;4.97;2.15;;;17.20;78.80;;;;;;5053957;28;20490;-68
2022/05/23 03:58:51;;;;;;;5.30;2.10;;;17.20;78.10;;;;;;5053428;28;20028;-68
2022/05/23 04:01:21;;;;;;;4.97;2.10;;;17.10;78.30;;;;;;5054016;28;20110;-69
2022/05/23 04:03:47;;;;;;;3.92;2.13;;;17.00;81.60;;;;;;5054745;28;20037;-68
2022/05/23 04:06:12;;;;;;;5.72;2.35;;;16.60;83.30;;;;;;5053553;28;20433;-68
2022/05/23 04:08:39;;;;;;;6.72;2.40;;;16.40;83.20;;;;;;5053692;28;20363;-68
2022/05/23 04:11:08;;;;;;;6.15;2.58;;;16.30;84.90;;;;;;5054013;28;20104;-68
2022/05/23 04:13:34;;;;;;;5.97;2.35;;;15.90;87.60;;;;;;5051905;28;20112;-68
2022/05/23 04:15:59;;;;;;;4.47;2.40;;;15.50;88.80;;;;;;5054841;28;20049;-68
2022/05/23 04:18:25;;;;;;;6.53;2.80;;;15.30;88.80;;;;;;5049211;28;20052;-68
2022/05/23 04:20:51;;;;;;;7.00;3.08;;;15.10;89.00;;;;;;5032173;28;20421;-68
2022/05/23 04:23:17;;;;;;;5.70;2.83;;;15.00;90.90;;;;;;5046713;28;20025;-69
2022/05/23 04:25:46;;;;;;;6.13;2.55;;;15.00;91.30;;;;;;5053313;28;20094;-68
2022/05/23 04:28:13;;;;;;;5.70;2.78;;;15.10;92.50;;;;;;5046862;28;20037;-68
2022/05/23 04:30:43;;;;;;;5.60;2.80;;;15.10;92.10;;;;;;5052141;28;20025;-68
2022/05/23 04:35:57;;;;;;;5.10;2.63;;;15.40;91.80;;;;;;5054196;28;20370;-68
2022/05/23 04:38:22;;;;;;;5.65;2.90;;;15.20;91.50;;;;;;5052205;28;20124;-68
2022/05/23 04:40:48;;;;;;;4.80;3.00;;;14.70;91.80;;;;;;5051681;28;20445;-68
2022/05/23 04:43:17;;;;;;;7.05;3.10;;;14.40;92.90;;;;;;5055006;28;20372;-68
2022/05/23 04:45:45;;;;;;;7.70;3.30;;;14.00;93.90;;;;;;5052806;28;20036;-68
2022/05/23 04:50:55;;;;;;;6.55;3.15;;;13.60;95.00;;;;;;5064732;28;20330;-68
2022/05/23 04:53:24;;;;;;;5.18;3.30;;;13.60;95.40;;;;;;5052427;28;20025;-68
2022/05/23 04:55:52;;;;;;;8.43;3.10;;;13.60;95.60;;;;;;5051303;28;20090;-68
2022/05/23 04:58:18;;;;;;;7.07;3.28;;;13.60;95.80;;;;;;5050315;28;20111;-68
2022/05/23 05:00:43;;;;;;;6.22;3.50;;;13.70;96.10;;;;;;5053445;28;20096;-68
2022/05/23 05:03:09;;;;;;;5.90;3.60;;;13.80;96.00;;;;;;5054473;28;20065;-68
2022/05/23 05:05:35;;;;;;;7.50;3.30;;;13.90;95.90;;;;;;5052481;28;20037;-67
2022/05/23 05:08:02;;;;;;;6.68;3.00;;;13.90;95.80;;;;;;5052054;28;20029;-68
2022/05/23 05:10:28;;;;;;;5.38;3.03;;;13.90;95.70;;;;;;5033730;28;20029;-68
2022/05/23 05:13:02;;;;;;;5.55;3.00;;;14.00;95.50;;;;;;5052816;28;20029;-68
2022/05/23 05:15:29;;;;;;;7.35;3.05;;;14.00;95.80;;;;;;5057654;28;20025;-67
2022/05/23 05:17:55;;;;;;;7.55;3.20;;;14.10;95.80;;;;;;5059380;28;20045;-67
2022/05/23 05:20:23;;;;;;;6.95;3.47;;;14.20;95.80;;;;;;5058849;28;20461;-68
2022/05/23 05:22:51;;;;;;;5.57;3.22;;;14.20;95.80;;;;;;5052714;28;20029;-68
2022/05/23 05:25:18;;;;;;;5.82;2.88;;;14.20;95.50;;;;;;5058851;28;20075;-69
2022/05/23 05:27:44;;;;;;;8.20;3.40;;;14.30;95.60;;;;;;5056108;28;20032;-69
2022/05/23 05:30:15;;;;;;;11.43;3.40;;;14.20;95.60;;;;;;5048844;28;20035;-68
2022/05/23 05:33:06;;;;;;;5.93;3.15;;;14.30;96.10;;;;;;5053150;28;20414;-67
2022/05/23 05:35:38;;;;;;;7.30;3.28;;;14.30;96.00;;;;;;5051552;28;20060;-68
2022/05/23 05:38:19;;;;;;;8.15;3.40;;;14.30;96.10;;;;;;5053974;28;20334;-67
2022/05/23 05:40:47;;;;;;;5.57;3.30;;;14.20;96.10;;;;;;5052852;28;20017;-69
2022/05/23 05:43:21;;;;;;;6.75;3.20;;;14.10;96.50;;;;;;5050254;28;20025;-68
2022/05/23 05:45:53;;;;;;;5.57;3.00;;;14.10;96.00;;;;;;5050376;28;20025;-68
2022/05/23 05:48:19;;;;;;;6.07;3.28;;;14.20;96.50;;;;;;5055538;28;20411;-68
2022/05/23 05:50:48;;;;;;;4.97;2.90;;;14.30;96.40;;;;;;5051530;28;20032;-68
2022/05/23 05:53:28;;;;;;;4.47;2.88;;;14.40;96.60;;;;;;5054491;28;20453;-68
2022/05/23 05:55:54;;;;;;;5.88;2.95;;;14.60;96.50;;;;;;5055713;28;20028;-68
2022/05/23 05:58:20;;;;;;;5.75;2.60;;;14.80;96.10;;;;;;5055256;28;20353;-68
2022/05/23 06:00:48;;;;;;;6.70;3.00;;;15.10;95.30;;;;;;5053794;28;20017;-68
2022/05/23 06:03:13;;;;;;;6.18;2.67;;;15.30;94.20;;;;;;5053885;28;20142;-68
2022/05/23 06:13:58;;;;;;;7.20;2.70;;;16.10;92.60;;;;;;5037573;28;20138;-68
2022/05/23 06:16:25;;;;;;;7.28;3.10;;;16.50;91.60;;;;;;5033207;28;20059;-68
2022/05/23 06:18:50;;;;;;;8.05;2.58;;;16.90;90.00;;;;;;5021565;28;20034;-68
2022/05/23 06:21:16;;;;;;;6.03;2.67;;;16.90;90.20;;;;;;5018483;28;20371;-68
2022/05/23 06:23:43;;;;;;;6.50;2.58;;;17.00;90.50;;;;;;5041013;28;20410;-68
2022/05/23 06:26:09;;;;;;;5.32;2.70;;;17.00;90.00;;;;;;5057947;28;20075;-68
2022/05/23 06:28:36;;;;;;;5.72;2.90;;;17.00;89.80;;;;;;5041365;28;20033;-68
2022/05/23 06:31:03;;;;;;;4.85;2.50;;;17.10;89.70;;;;;;5035089;28;20033;-68
2022/05/23 06:33:29;;;;;;;7.72;2.85;;;17.30;89.60;;;;;;5036116;28;20029;-68
2022/05/23 06:35:55;;;;;;;6.60;2.58;;;17.60;88.80;;;;;;5036767;28;20028;-68
2022/05/23 06:38:21;;;;;;;5.88;2.55;;;17.90;88.10;;;;;;5035443;28;20025;-67
2022/05/23 06:40:51;;;;;;;5.25;2.45;;;18.10;88.20;;;;;;5037137;28;20025;-68
2022/05/23 06:43:17;;;;;;;5.05;2.50;;;18.30;86.50;;;;;;5037719;28;20025;-68
2022/05/23 06:45:44;;;;;;;4.80;2.50;;;18.40;87.10;;;;;;5036520;28;20057;-68
2022/05/23 06:48:12;;;;;;;5.85;2.50;;;18.60;86.20;;;;;;5018832;28;20439;-68
2022/05/23 06:50:38;;;;;;;4.72;2.47;;;18.70;85.80;;;;;;5037174;28;20437;-68
2022/05/23 06:53:04;;;;;;;6.53;2.63;;;18.80;85.50;;;;;;5035075;28;20029;-67
2022/05/23 06:55:32;;;;;;;4.93;2.50;;;18.90;85.90;;;;;;5036337;28;20067;-68
2022/05/23 06:57:59;;;;;;;6.30;2.53;;;18.90;85.60;;;;;;5022578;28;20044;-68
2022/05/23 07:00:25;;;;;;;6.80;2.60;;;19.00;85.40;;;;;;5034592;28;20029;-67
2022/05/23 07:02:51;;;;;;;5.10;2.78;;;18.90;85.00;;;;;;5036829;28;20104;-68
2022/05/23 07:13:33;;;;;;;7.15;2.60;;;19.50;83.80;;;;;;5037051;28;20378;-68
2022/05/23 07:15:59;;;;;;;6.05;2.30;;;20.00;84.00;;;;;;5034963;28;20108;-68
2022/05/23 07:18:27;;;;;;;5.38;2.10;;;20.40;80.70;;;;;;5037011;28;20021;-68
2022/05/23 07:20:53;;;;;;;6.10;2.75;;;20.40;81.10;;;;;;5035908;28;20334;-68
2022/05/23 07:23:19;;;;;;;5.00;2.15;;;20.40;81.50;;;;;;5035844;28;20032;-68
2022/05/23 07:25:45;;;;;;;5.30;2.40;;;20.20;81.60;;;;;;5035747;28;20026;-68
2022/05/23 07:28:11;;;;;;;6.32;2.50;;;20.00;82.40;;;;;;5036870;28;20036;-68
2022/05/23 07:30:37;;;;;;;5.43;2.63;;;19.80;82.90;;;;;;5038264;28;20037;-68
2022/05/23 07:33:03;;;;;;;4.85;2.22;;;19.90;83.90;;;;;;5036618;28;20037;-68
2022/05/23 07:35:28;;;;;;;5.85;2.55;;;20.10;82.80;;;;;;5035596;28;20415;-68
2022/05/23 07:38:00;;;;;;;7.00;3.20;;;20.40;81.90;;;;;;5034481;28;20419;-68
2022/05/23 07:40:29;;;;;;;6.80;2.30;;;20.60;80.40;;;;;;5035535;28;20140;-68
2022/05/23 07:42:55;;;;;;;7.90;2.30;;;20.90;80.80;;;;;;5036804;28;20025;-68
2022/05/23 07:45:20;;;;;;;5.60;2.13;;;21.40;79.20;;;;;;5039487;28;20030;-68
2022/05/23 07:47:46;;;;;;;6.97;2.42;;;21.70;78.20;;;;;;5035636;28;20418;-68
2022/05/23 07:50:12;;;;;;;5.78;2.22;;;21.90;76.70;;;;;;5034904;28;20057;-68
2022/05/23 07:52:38;;;;;;;6.90;2.50;;;21.90;78.20;;;;;;5034139;28;20034;-68
2022/05/23 08:00:35;;;;;;;5.47;2.28;;;22.40;76.30;;;;;;5050898;28;20082;-68
2022/05/23 08:03:16;;;;;;;4.80;2.20;;;22.70;77.00;;;;;;5055731;28;20068;-68
2022/05/23 08:05:43;;;;;;;4.25;1.95;;;23.30;74.90;;;;;;5036617;28;20029;-68
2022/05/23 08:08:10;;;;;;;5.03;2.15;;;23.70;73.80;;;;;;5035051;28;20033;-68
2022/05/23 08:10:36;;;;;;;10.05;2.80;;;23.90;72.10;;;;;;5038115;28;20446;-67
2022/05/23 08:13:08;;;;;;;9.70;2.90;;;23.80;72.90;;;;;;5048939;28;20029;-67
2022/05/23 08:15:37;;;;;;;6.43;2.30;;;24.00;72.30;;;;;;5031660;28;20076;-66
2022/05/23 08:18:09;;;;;;;6.28;2.28;;;24.40;72.10;;;;;;5036265;28;20022;-69
2022/05/23 08:20:38;;;;;;;6.22;2.60;;;24.30;72.90;;;;;;5037514;28;20068;-69
2022/05/23 08:23:16;;;;;;;7.93;2.33;;;23.90;72.80;;;;;;5034916;28;20025;-67
2022/05/23 08:25:41;;;;;;;5.50;2.42;;;23.40;74.40;;;;;;5035911;28;20026;-68
2022/05/23 08:28:07;;;;;;;6.13;2.95;;;22.80;75.20;;;;;;5035788;28;20113;-68
2022/05/23 08:30:33;;;;;;;6.60;2.63;;;23.00;76.30;;;;;;5035846;28;20036;-68
2022/05/23 08:32:59;;;;;;;6.13;2.30;;;24.10;73.90;;;;;;5035900;28;20030;-67
2022/05/23 08:35:26;;;;;;;8.65;2.75;;;24.90;72.30;;;;;;5041748;28;20113;-67
2022/05/23 08:37:52;;;;;;;8.50;2.38;;;25.20;71.60;;;;;;5041843;28;20774;-68
2022/05/23 08:40:17;;;;;;;6.57;2.50;;;24.60;72.80;;;;;;5034506;28;20071;-68
2022/05/23 08:42:56;;;;;;;6.63;2.40;;;23.90;73.90;;;;;;5038093;28;20326;-68
2022/05/23 08:45:45;;;;;;;5.22;2.42;;;23.20;75.40;;;;;;5055823;28;20365;-67
2022/05/23 08:48:23;;;;;;;4.80;2.67;;;23.00;77.60;;;;;;5039406;28;20319;-68
2022/05/23 08:50:59;;;;;;;6.18;2.60;;;23.30;77.60;;;;;;5053008;28;20120;-67
2022/05/23 08:54:14;;;;;;;7.90;2.22;;;23.60;77.30;;;;;;5039757;28;20441;-68
2022/05/23 08:56:46;;;;;;;8.57;2.83;;;25.00;74.70;;;;;;5038897;28;20033;-67
2022/05/23 08:59:21;;;;;;;5.63;2.20;;;25.50;70.70;;;;;;5039032;28;20034;-67
2022/05/23 09:01:59;;;;;;;4.93;2.05;;;25.20;72.30;;;;;;5038622;28;20331;-67
2022/05/23 09:04:37;;;;;;;6.80;2.55;;;25.80;70.50;;;;;;5038320;28;20037;-67
2022/05/23 09:07:10;;;;;;;5.35;2.10;;;26.40;70.30;;;;;;5038709;28;20049;-68
2022/05/23 09:09:37;;;;;;;5.82;2.45;;;26.70;69.60;;;;;;5036800;28;20442;-67
2022/05/23 09:12:10;;;;;;;4.07;2.20;;;26.70;68.00;;;;;;5027338;28;20045;-67
2022/05/23 09:14:37;;;;;;;4.97;2.50;;;26.00;70.60;;;;;;5035973;28;20029;-68
2022/05/23 09:17:05;;;;;;;4.97;2.25;;;25.90;70.00;;;;;;5038368;28;20021;-67
2022/05/23 09:20:14;;;;;;;6.50;2.00;;;26.40;68.10;;;;;;5037604;28;20049;-67
2022/05/23 09:22:50;;;;;;;4.68;2.45;;;27.20;67.30;;;;;;4937978;29;20055;-67
2022/05/23 09:25:20;;;;;;;5.53;2.38;;;27.90;65.90;;;;;;4940113;29;20488;-68
2022/05/23 09:28:11;;;;;;;5.53;2.97;;;27.90;64.80;;;;;;4997461;28;20046;-68
2022/05/23 09:30:39;;;;;;;5.68;2.22;;;27.90;66.50;;;;;;5038151;28;20446;-67
2022/05/23 09:33:17;;;;;;;7.47;2.50;;;27.80;66.20;;;;;;5037926;28;20037;-68
2022/05/23 09:35:54;;;;;;;5.72;1.90;;;27.90;65.50;;;;;;5019257;28;20160;-67
2022/05/23 09:38:30;;;;;;;6.65;2.42;;;27.80;65.60;;;;;;5032343;28;20116;-68
2022/05/23 09:40:56;;;;;;;6.97;2.30;;;27.70;67.60;;;;;;5038469;28;20100;-67
2022/05/23 09:49:23;;;;;;;7.05;2.83;;;23.90;74.40;;;;;;5019092;28;20246;-68
2022/05/23 09:51:59;;;;;;;4.57;2.72;;;23.00;76.80;;;;;;5024965;28;20100;-67
2022/05/23 09:54:27;;;;;;;6.47;3.10;;;22.50;77.90;;;;;;5037480;28;20057;-68
2022/05/23 09:56:54;;;;;;;6.10;3.15;;;22.40;79.30;;;;;;5037750;28;20438;-68
2022/05/23 09:59:33;;;;;;;6.60;3.25;;;22.00;84.00;;;;;;5037959;28;20022;-68
2022/05/23 10:02:15;;;;;;;8.23;3.38;;;21.40;84.80;;;;;;5031562;28;20046;-67
2022/05/23 10:04:44;;;;;;;8.45;3.58;;;21.10;86.20;;;;;;5045218;28;20339;-68
2022/05/23 10:07:31;;;;;;;5.97;3.22;;;20.80;86.50;;;;;;5039325;28;20370;-68
2022/05/23 10:10:03;;;;;;;5.15;3.03;;;20.70;86.60;;;;;;5000778;28;20025;-67
2022/05/23 10:12:34;;;;;;;6.45;3.55;;;20.60;86.10;;;;;;5018448;28;20029;-67
2022/05/23 10:15:20;;;;;;;6.57;3.25;;;20.60;85.60;;;;;;5021988;28;20095;-67
2022/05/23 10:18:00;;;;;;;7.53;3.40;;;20.60;86.10;;;;;;5025813;28;20030;-67
2022/05/23 10:20:44;;;;;;;8.60;3.80;;;20.60;86.90;;;;;;5011950;28;20366;-67
2022/05/23 10:23:39;;;;;;;;;;;20.60;87.40;;;;;;5013418;28;20030;-67
2022/05/23 10:26:23;;;;;;;8.85;3.90;;;20.30;89.20;;;;;;5010424;28;20278;-67
2022/05/23 10:28:55;;;;;;;10.38;3.72;;;20.10;90.90;;;;;;5013722;28;20446;-68
2022/05/23 10:31:33;;;;;;;6.28;3.33;;;20.00;91.90;;;;;;5016236;28;20048;-67
2022/05/23 10:34:06;;;;;;;10.35;4.05;;;19.90;91.80;;;;;;5012575;28;20037;-67
2022/05/23 10:36:40;;;;;;;7.38;4.10;;;20.00;92.00;;;;;;5012657;28;20036;-67
2022/05/23 10:42:26;;;;;;;7.00;4.05;;;20.10;92.40;;;;;;5012587;28;20035;-68
2022/05/23 10:45:06;;;;;;;7.25;3.38;;;20.30;93.20;;;;;;5015323;28;20041;-68
2022/05/23 10:48:06;;;;;;;7.63;3.72;;;20.50;92.20;;;;;;5012988;28;20116;-67
2022/05/23 10:50:54;;;;;;;8.43;3.83;;;20.40;91.70;;;;;;5012673;28;20029;-67
2022/05/23 10:53:32;;;;;;;9.60;4.30;;;20.20;92.70;;;;;;5010117;28;21811;-67
2022/05/23 10:56:25;;;;;;;10.48;4.28;;;19.90;93.20;;;;;;5011444;28;20025;-67
2022/05/23 10:58:59;;;;;;;10.23;4.80;;;19.60;94.30;;;;;;5010974;28;20042;-67
2022/05/23 11:01:54;;;;;;;11.13;4.72;;;19.20;94.80;;;;;;5013116;28;20109;-68
2022/05/23 11:04:57;;;;;;;16.83;5.68;;;18.60;95.20;;;;;;5012480;28;20053;-67
2022/05/23 11:07:35;;;;;;;19.08;6.47;;;18.20;95.50;;;;;;5007012;28;20033;-68
2022/05/23 11:10:32;;;;;;;12.20;5.65;;;17.80;95.10;;;;;;5012027;28;20337;-68
2022/05/23 11:13:30;;;;;;;16.88;6.80;;;17.30;93.30;;;;;;5030702;28;20034;-68
2022/05/23 11:16:36;;;;;;;13.38;5.63;;;16.90;92.50;;;;;;5032580;28;20113;-67
2022/05/23 11:19:16;;;;;;;13.70;5.15;;;16.60;92.30;;;;;;5035642;28;20040;-69
2022/05/23 11:22:07;;;;;;;11.35;4.78;;;16.40;95.00;;;;;;4995377;28;20033;-68
2022/05/23 11:25:13;;;;;;;10.32;3.42;;;16.30;92.90;;;;;;5007056;28;20033;-69
2022/05/23 11:33:47;;;;;;;11.07;3.22;;;15.90;96.20;;;;;;5008902;28;20037;-70
2022/05/23 11:36:23;;;;;;;7.85;3.90;;;15.70;94.40;;;;;;5015240;28;20022;-70
2022/05/23 11:38:51;;;;;;;10.60;3.90;;;15.60;93.60;;;;;;5007354;28;20055;-69
2022/05/23 11:41:41;;;;;;;15.45;4.25;;;15.50;91.80;;;;;;5009322;28;20029;-70
2022/05/23 11:44:41;;;;;;;10.85;3.53;;;15.40;91.40;;;;;;5025147;28;20038;-70
2022/05/23 11:47:16;;;;;;;10.45;3.25;;;15.20;94.00;;;;;;5034498;28;20089;-69
2022/05/23 11:49:48;;;;;;;14.32;2.85;;;15.20;95.30;;;;;;5022095;28;20121;-69
2022/05/23 11:52:40;;;;;;;10.52;2.97;;;15.30;96.40;;;;;;5035574;28;20029;-71
2022/05/23 11:55:11;;;;;;;13.32;3.70;;;15.20;97.00;;;;;;5035643;28;20097;-70
2022/05/23 11:57:42;;;;;;;11.65;3.35;;;15.10;95.50;;;;;;5035480;28;20438;-70
2022/05/23 12:00:27;;;;;;;8.20;2.92;;;15.10;93.30;;;;;;5033614;28;20049;-70
2022/05/23 12:03:03;;;;;;;;;;;15.20;92.70;;;;;;5035360;28;20036;-69
2022/05/23 12:05:33;;;;;;;10.32;2.97;;;15.30;92.20;;;;;;5054050;28;19912;-69
2022/05/23 12:08:02;;;;;;;12.13;3.30;;;15.40;91.60;;;;;;5052252;28;20028;-69
2022/05/23 12:10:39;;;;;;;11.30;3.15;;;15.60;91.00;;;;;;5035388;28;20029;-69
2022/05/23 12:13:29;;;;;;;11.18;3.33;;;15.70;91.40;;;;;;5051920;28;20082;-70
2022/05/23 12:15:56;;;;;;;11.32;4.28;;;15.90;91.80;;;;;;5053246;28;20029;-70
2022/05/23 12:18:22;;;;;;;11.63;3.25;;;16.10;91.40;;;;;;5035648;28;20100;-70
2022/05/23 12:20:56;;;;;;;13.02;3.20;;;16.40;90.30;;;;;;5053825;28;20021;-70
2022/05/23 12:23:43;;;;;;;14.57;3.22;;;16.80;91.10;;;;;;5052395;28;20078;-70
2022/05/23 12:26:12;;;;;;;12.00;3.13;;;16.90;94.70;;;;;;5053745;28;20049;-69
2022/05/23 12:29:00;;;;;;;8.48;2.78;;;17.20;94.50;;;;;;5051235;28;20025;-70
2022/05/23 12:31:32;;;;;;;9.00;2.47;;;17.70;94.20;;;;;;5051307;28;20036;-70
2022/05/23 12:34:05;;;;;;;8.95;2.67;;;18.20;95.00;;;;;;5033487;28;20044;-70
2022/05/23 12:36:34;;;;;;;9.68;2.50;;;18.90;96.40;;;;;;5034527;28;20032;-70
2022/05/23 12:39:29;;;;;;;7.93;2.45;;;19.70;97.30;;;;;;5034060;28;20028;-69
2022/05/23 12:42:01;;;;;;;;;;;19.80;96.20;;;;;;5044287;28;20044;-70
2022/05/23 12:45:15;;;;;;;9.13;2.20;;;20.20;95.50;;;;;;5052704;28;19916;-70
2022/05/23 12:47:56;;;;;;;7.50;2.80;;;20.80;94.50;;;;;;5043986;28;20047;-69
2022/05/23 12:50:47;;;;;;;5.57;1.60;;;22.00;93.10;;;;;;5051697;28;20088;-69
2022/05/23 12:53:33;;;;;;;7.32;2.00;;;22.80;91.20;;;;;;5051713;28;20029;-67
2022/05/23 12:56:26;;;;;;;6.13;1.90;;;23.20;87.60;;;;;;5052176;28;20029;-69
2022/05/23 12:59:01;;;;;;;5.85;1.98;;;23.90;86.50;;;;;;5051263;28;20079;-69
2022/05/23 13:01:33;;;;;;;8.98;3.03;;;24.70;83.30;;;;;;5051080;28;20033;-68
2022/05/23 13:04:15;;;;;;;7.93;2.63;;;25.30;80.40;;;;;;5049400;28;20037;-68
2022/05/23 13:06:51;;;;;;;10.43;2.05;;;23.90;82.20;;;;;;5030624;28;20037;-68
2022/05/23 13:09:26;;;;;;;10.65;2.45;;;23.40;82.20;;;;;;5052394;28;20035;-67
2022/05/23 13:12:02;;;;;;;8.38;2.17;;;23.70;79.70;;;;;;5054329;28;20029;-68
2022/05/23 13:14:48;;;;;;;6.28;2.15;;;24.20;78.60;;;;;;5050908;28;20414;-68
2022/05/23 13:17:34;;;;;;;7.75;1.90;;;24.80;78.30;;;;;;5040007;28;20037;-68
2022/05/23 13:22:44;;;;;;;8.48;2.10;;;25.30;73.50;;;;;;5053388;28;20437;-69
2022/05/23 13:25:10;;;;;;;7.15;1.60;;;25.80;73.60;;;;;;5053935;28;20060;-69
2022/05/23 13:27:49;;;;;;;5.50;1.70;;;26.90;74.00;;;;;;5054583;28;20025;-69
2022/05/23 13:30:29;;;;;;;6.72;1.92;;;27.80;73.00;;;;;;5054023;28;20025;-69
2022/05/23 13:33:26;;;;;;;5.50;1.73;;;28.20;67.90;;;;;;5052226;28;20028;-68
2022/05/23 13:36:01;;;;;;;7.60;2.30;;;26.90;72.20;;;;;;5055369;28;20334;-68
2022/05/23 13:38:33;;;;;;;8.55;1.83;;;26.50;73.80;;;;;;5037849;28;20112;-68
2022/05/23 13:41:07;;;;;;;6.00;2.17;;;26.50;73.70;;;;;;5058578;28;20061;-67
2022/05/23 13:43:42;;;;;;;5.15;1.52;;;27.00;73.30;;;;;;5057201;28;20021;-68
2022/05/23 13:46:22;;;;;;;7.05;2.15;;;27.20;70.20;;;;;;5057629;28;20059;-68
2022/05/23 13:49:02;;;;;;;6.72;2.22;;;27.30;71.10;;;;;;5056618;28;20028;-68
2022/05/23 13:51:33;;;;;;;9.13;1.55;;;28.20;70.30;;;;;;5058614;28;20017;-68
2022/05/23 13:54:05;;;;;;;5.55;1.65;;;29.20;67.70;;;;;;5056397;28;20414;-68
2022/05/23 13:56:31;;;;;;;6.15;1.67;;;29.40;65.80;;;;;;5056852;28;20110;-67
2022/05/23 13:59:08;;;;;;;7.00;1.70;;;29.50;64.50;;;;;;5057762;28;20020;-68
2022/05/23 14:01:47;;;;;;;5.13;1.38;;;29.10;63.60;;;;;;5056428;28;20043;-68
2022/05/23 14:04:15;;;;;;;7.00;1.75;;;29.30;61.60;;;;;;5050415;28;20132;-68